sensor_id;sensor_type;location;lat;lon;timestamp;pressure;altitude;pressure_sealevel;temperature;humidity
6425;BME280;12193;42.642;23.384;2024-01-11T00:02:14;59546.94;;;-140.48;100.00
6425;BME280;12193;42.642;23.384;2024-01-11T00:04:43;59546.94;;;-140.48;100.00
6425;BME280;12193;42.642;23.384;2024-01-11T00:07:13;59546.94;;;-140.48;100.00
6425;BME280;12193;42.642;23.384;2024-01-11T00:09:45;59546.94;;;-140.48;100.00
6425;BME280;12193;42.642;23.384;2024-01-11T00:12:14;59546.94;;;-140.48;100.00
6425;BME280;12193;42.642;23.384;2024-01-11T00:14:44;59546.94;;;-140.48;100.00
6425;BME280;12193;42.642;23.384;2024-01-11T00:17:13;59546.94;;;-140.48;100.00
6425;BME280;12193;42.642;23.384;2024-01-11T00:19:42;59546.94;;;-140.48;100.00
6425;BME280;12193;42.642;23.384;2024-01-11T00:22:11;59546.94;;;-140.48;100.00
6425;BME280;12193;42.642;23.384;2024-01-11T00:24:40;59546.94;;;-140.48;100.00
6425;BME280;12193;42.642;23.384;2024-01-11T00:27:13;59546.94;;;-140.48;100.00
6425;BME280;12193;42.642;23.384;2024-01-11T00:29:42;59546.94;;;-140.48;100.00
6425;BME280;12193;42.642;23.384;2024-01-11T00:32:11;59546.94;;;-140.48;100.00
6425;BME280;12193;42.642;23.384;2024-01-11T00:34:40;59546.94;;;-140.48;100.00
6425;BME280;12193;42.642;23.384;2024-01-11T00:37:09;59546.94;;;-140.48;100.00
6425;BME280;12193;42.642;23.384;2024-01-11T00:39:39;59546.94;;;-140.48;100.00
6425;BME280;12193;42.642;23.384;2024-01-11T00:42:08;59546.94;;;-140.48;100.00
6425;BME280;12193;42.642;23.384;2024-01-11T00:44:40;59546.94;;;-140.48;100.00
6425;BME280;12193;42.642;23.384;2024-01-11T00:47:11;59546.94;;;-140.48;100.00
6425;BME280;12193;42.642;23.384;2024-01-11T00:49:40;59546.94;;;-140.48;100.00
6425;BME280;12193;42.642;23.384;2024-01-11T00:52:09;59546.94;;;-140.48;100.00
6425;BME280;12193;42.642;23.384;2024-01-11T00:54:40;59546.94;;;-140.48;100.00
6425;BME280;12193;42.642;23.384;2024-01-11T00:57:09;59546.94;;;-140.48;100.00
6425;BME280;12193;42.642;23.384;2024-01-11T00:59:42;59546.94;;;-140.48;100.00
6425;BME280;12193;42.642;23.384;2024-01-11T01:02:12;59546.94;;;-140.48;100.00
6425;BME280;12193;42.642;23.384;2024-01-11T01:04:41;59546.94;;;-140.48;100.00
6425;BME280;12193;42.642;23.384;2024-01-11T04:08:30;95225.50;;;-6.96;100.00
6425;BME280;12193;42.642;23.384;2024-01-11T04:11:01;95229.56;;;-6.93;100.00
6425;BME280;12193;42.642;23.384;2024-01-11T04:13:32;95227.63;;;-6.88;100.00
6425;BME280;12193;42.642;23.384;2024-01-11T04:16:04;95223.53;;;-6.91;100.00
6425;BME280;12193;42.642;23.384;2024-01-11T04:18:33;95219.00;;;-6.84;100.00
6425;BME280;12193;42.642;23.384;2024-01-11T04:21:03;95211.41;;;-6.84;100.00
6425;BME280;12193;42.642;23.384;2024-01-11T04:23:35;95215.00;;;-6.88;100.00
6425;BME280;12193;42.642;23.384;2024-01-11T04:26:04;95208.22;;;-6.88;100.00
6425;BME280;12193;42.642;23.384;2024-01-11T04:28:33;95210.19;;;-6.77;100.00
6425;BME280;12193;42.642;23.384;2024-01-11T04:31:02;95214.50;;;-6.79;100.00
6425;BME280;12193;42.642;23.384;2024-01-11T04:33:32;95207.50;;;-6.59;100.00
6425;BME280;12193;42.642;23.384;2024-01-11T04:36:01;95215.00;;;-6.73;100.00
6425;BME280;12193;42.642;23.384;2024-01-11T04:38:30;95206.19;;;-6.81;100.00
6425;BME280;12193;42.642;23.384;2024-01-11T04:41:02;95211.81;;;-6.76;100.00
6425;BME280;12193;42.642;23.384;2024-01-11T04:43:31;95213.13;;;-6.69;100.00
6425;BME280;12193;42.642;23.384;2024-01-11T04:46:00;95215.81;;;-6.57;100.00
6425;BME280;12193;42.642;23.384;2024-01-11T04:48:30;95208.72;;;-6.50;100.00
6425;BME280;12193;42.642;23.384;2024-01-11T04:50:59;95210.09;;;-6.45;100.00
6425;BME280;12193;42.642;23.384;2024-01-11T04:53:28;95220.97;;;-6.29;100.00
6425;BME280;12193;42.642;23.384;2024-01-11T04:55:57;95217.13;;;-6.20;100.00
6425;BME280;12193;42.642;23.384;2024-01-11T04:58:29;95222.28;;;-6.22;100.00
6425;BME280;12193;42.642;23.384;2024-01-11T05:00:59;95211.78;;;-6.30;100.00
6425;BME280;12193;42.642;23.384;2024-01-11T05:03:29;95221.13;;;-6.16;100.00
6425;BME280;12193;42.642;23.384;2024-01-11T05:05:59;95215.94;;;-6.00;100.00
6425;BME280;12193;42.642;23.384;2024-01-11T05:08:28;95217.38;;;-6.10;100.00
6425;BME280;12193;42.642;23.384;2024-01-11T05:10:58;95210.41;;;-6.06;100.00
6425;BME280;12193;42.642;23.384;2024-01-11T05:13:30;95214.72;;;-5.93;100.00
6425;BME280;12193;42.642;23.384;2024-01-11T05:15:59;95205.78;;;-5.84;100.00
6425;BME280;12193;42.642;23.384;2024-01-11T05:18:28;95209.03;;;-5.96;100.00
6425;BME280;12193;42.642;23.384;2024-01-11T05:20:57;95200.44;;;-5.94;100.00
6425;BME280;12193;42.642;23.384;2024-01-11T05:23:27;95194.00;;;-5.99;100.00
6425;BME280;12193;42.642;23.384;2024-01-11T05:25:56;95198.97;;;-5.98;100.00
6425;BME280;12193;42.642;23.384;2024-01-11T05:28:25;95196.13;;;-6.07;100.00
6425;BME280;12193;42.642;23.384;2024-01-11T05:30:57;95188.56;;;-6.07;100.00
6425;BME280;12193;42.642;23.384;2024-01-11T05:33:26;95189.16;;;-5.88;100.00
6425;BME280;12193;42.642;23.384;2024-01-11T05:35:55;95187.63;;;-5.91;100.00
6425;BME280;12193;42.642;23.384;2024-01-11T05:38:24;95185.34;;;-5.95;100.00
6425;BME280;12193;42.642;23.384;2024-01-11T05:40:54;95191.91;;;-6.07;100.00
6425;BME280;12193;42.642;23.384;2024-01-11T05:43:23;95186.97;;;-5.94;100.00
6425;BME280;12193;42.642;23.384;2024-01-11T05:45:52;95186.19;;;-5.81;100.00
6425;BME280;12193;42.642;23.384;2024-01-11T05:48:24;95177.75;;;-5.67;100.00
6425;BME280;12193;42.642;23.384;2024-01-11T05:50:53;95177.59;;;-5.64;100.00
6425;BME280;12193;42.642;23.384;2024-01-11T05:53:22;95173.88;;;-5.73;100.00
6425;BME280;12193;42.642;23.384;2024-01-11T05:55:53;95177.94;;;-5.70;100.00
6425;BME280;12193;42.642;23.384;2024-01-11T05:58:23;95178.31;;;-5.62;100.00
6425;BME280;12193;42.642;23.384;2024-01-11T06:00:52;95165.75;;;-5.64;100.00
6425;BME280;12193;42.642;23.384;2024-01-11T06:03:24;95170.81;;;-5.92;100.00
6425;BME280;12193;42.642;23.384;2024-01-11T06:05:54;95168.53;;;-5.96;100.00
6425;BME280;12193;42.642;23.384;2024-01-11T06:08:23;95164.22;;;-5.80;100.00
6425;BME280;12193;42.642;23.384;2024-01-11T06:10:52;95166.91;;;-5.69;100.00
6425;BME280;12193;42.642;23.384;2024-01-11T06:13:21;95163.34;;;-5.37;100.00
6425;BME280;12193;42.642;23.384;2024-01-11T06:15:51;95169.28;;;-5.24;100.00
6425;BME280;12193;42.642;23.384;2024-01-11T06:18:20;95167.06;;;-5.43;100.00
6425;BME280;12193;42.642;23.384;2024-01-11T06:20:52;95167.19;;;-4.90;100.00
6425;BME280;12193;42.642;23.384;2024-01-11T06:23:23;95170.66;;;-4.12;100.00
6425;BME280;12193;42.642;23.384;2024-01-11T06:25:54;95166.69;;;-3.52;100.00
6425;BME280;12193;42.642;23.384;2024-01-11T06:28:23;95161.81;;;-3.30;100.00
6425;BME280;12193;42.642;23.384;2024-01-11T06:30:52;95172.34;;;-2.87;100.00
6425;BME280;12193;42.642;23.384;2024-01-11T06:33:21;95164.34;;;-3.30;100.00
6425;BME280;12193;42.642;23.384;2024-01-11T06:35:53;95154.16;;;-1.76;100.00
6425;BME280;12193;42.642;23.384;2024-01-11T06:38:22;95158.50;;;-1.89;100.00
6425;BME280;12193;42.642;23.384;2024-01-11T06:40:51;95159.72;;;-1.71;100.00
6425;BME280;12193;42.642;23.384;2024-01-11T06:43:20;95155.50;;;-1.38;97.41
6425;BME280;12193;42.642;23.384;2024-01-11T06:45:50;95156.88;;;-1.90;96.88
6425;BME280;12193;42.642;23.384;2024-01-11T06:48:19;95144.66;;;-1.74;98.41
6425;BME280;12193;42.642;23.384;2024-01-11T06:50:48;95147.38;;;-0.02;90.68
6425;BME280;12193;42.642;23.384;2024-01-11T06:53:20;95153.69;;;-0.28;85.76
6425;BME280;12193;42.642;23.384;2024-01-11T06:55:49;95156.34;;;-1.15;91.67
6425;BME280;12193;42.642;23.384;2024-01-11T06:58:20;95155.97;;;-0.14;86.88
6425;BME280;12193;42.642;23.384;2024-01-11T07:00:49;95151.84;;;0.05;83.44
6425;BME280;12193;42.642;23.384;2024-01-11T07:03:20;95154.38;;;1.07;79.47
6425;BME280;12193;42.642;23.384;2024-01-11T07:05:49;95152.75;;;1.36;76.22
6425;BME280;12193;42.642;23.384;2024-01-11T07:08:21;95151.38;;;1.72;75.02
6425;BME280;12193;42.642;23.384;2024-01-11T07:10:50;95150.91;;;1.48;73.76
6425;BME280;12193;42.642;23.384;2024-01-11T07:13:19;95153.72;;;1.94;72.29
6425;BME280;12193;42.642;23.384;2024-01-11T07:15:49;95148.81;;;1.32;72.29
6425;BME280;12193;42.642;23.384;2024-01-11T07:18:18;95155.59;;;-0.41;80.84
6425;BME280;12193;42.642;23.384;2024-01-11T07:20:47;95148.72;;;-1.04;85.33
6425;BME280;12193;42.642;23.384;2024-01-11T07:23:17;95141.97;;;-1.84;90.78
6425;BME280;12193;42.642;23.384;2024-01-11T07:25:49;95146.09;;;-2.28;95.76
6425;BME280;12193;42.642;23.384;2024-01-11T07:28:18;95141.06;;;-1.83;96.03
6425;BME280;12193;42.642;23.384;2024-01-11T07:30:51;95138.78;;;-1.98;96.55
6425;BME280;12193;42.642;23.384;2024-01-11T07:33:21;95146.03;;;-1.14;93.71
6425;BME280;12193;42.642;23.384;2024-01-11T07:35:51;95144.25;;;-0.48;86.84
6425;BME280;12193;42.642;23.384;2024-01-11T07:38:20;95135.59;;;-1.33;90.50
6425;BME280;12193;42.642;23.384;2024-01-11T07:40:51;95141.75;;;-1.02;90.99
6425;BME280;12193;42.642;23.384;2024-01-11T07:43:20;95144.88;;;-0.77;87.63
6425;BME280;12193;42.642;23.384;2024-01-11T07:45:50;95145.22;;;-0.82;88.13
6425;BME280;12193;42.642;23.384;2024-01-11T07:48:19;95144.03;;;-1.43;90.06
6425;BME280;12193;42.642;23.384;2024-01-11T07:50:48;95143.22;;;-0.89;90.46
6425;BME280;12193;42.642;23.384;2024-01-11T07:53:17;95130.63;;;-1.12;90.04
6425;BME280;12193;42.642;23.384;2024-01-11T07:55:46;95140.25;;;-0.94;90.02
6425;BME280;12193;42.642;23.384;2024-01-11T07:58:20;95145.38;;;0.01;86.74
6425;BME280;12193;42.642;23.384;2024-01-11T08:00:49;95127.28;;;-0.06;85.07
6425;BME280;12193;42.642;23.384;2024-01-11T08:03:18;95124.06;;;0.12;83.71
6425;BME280;12193;42.642;23.384;2024-01-11T08:05:47;95134.81;;;-0.36;87.92
6425;BME280;12193;42.642;23.384;2024-01-11T08:08:17;95125.81;;;-0.51;85.16
6425;BME280;12193;42.642;23.384;2024-01-11T08:10:46;95124.47;;;-0.35;88.13
6425;BME280;12193;42.642;23.384;2024-01-11T08:13:16;95119.66;;;-0.17;85.99
6425;BME280;12193;42.642;23.384;2024-01-11T08:15:48;95121.50;;;0.12;85.17
6425;BME280;12193;42.642;23.384;2024-01-11T08:18:18;95120.31;;;0.36;82.99
6425;BME280;12193;42.642;23.384;2024-01-11T08:20:48;95114.97;;;1.19;78.51
6425;BME280;12193;42.642;23.384;2024-01-11T08:23:17;95112.88;;;1.43;78.58
6425;BME280;12193;42.642;23.384;2024-01-11T08:25:46;95115.84;;;1.48;77.46
6425;BME280;12193;42.642;23.384;2024-01-11T08:28:16;95108.25;;;1.28;79.50
6425;BME280;12193;42.642;23.384;2024-01-11T08:30:49;95116.94;;;1.46;78.79
6425;BME280;12193;42.642;23.384;2024-01-11T08:33:18;95113.47;;;1.17;79.68
6425;BME280;12193;42.642;23.384;2024-01-11T08:35:47;95110.88;;;1.47;78.57
6425;BME280;12193;42.642;23.384;2024-01-11T08:38:16;95115.97;;;0.48;82.26
6425;BME280;12193;42.642;23.384;2024-01-11T08:40:46;95113.03;;;1.51;78.50
6425;BME280;12193;42.642;23.384;2024-01-11T08:43:15;95112.78;;;1.15;78.18
6425;BME280;12193;42.642;23.384;2024-01-11T08:45:44;95113.44;;;0.78;80.49
6425;BME280;12193;42.642;23.384;2024-01-11T08:48:16;95112.03;;;1.33;77.85
6425;BME280;12193;42.642;23.384;2024-01-11T08:50:45;95111.34;;;2.08;76.68
6425;BME280;12193;42.642;23.384;2024-01-11T08:53:14;95108.47;;;1.74;76.02
6425;BME280;12193;42.642;23.384;2024-01-11T08:55:44;95107.53;;;1.07;80.19
6425;BME280;12193;42.642;23.384;2024-01-11T08:58:13;95102.72;;;1.23;80.43
6425;BME280;12193;42.642;23.384;2024-01-11T09:00:43;95103.72;;;1.50;77.01
6425;BME280;12193;42.642;23.384;2024-01-11T09:03:12;95096.53;;;0.86;81.41
6425;BME280;12193;42.642;23.384;2024-01-11T09:05:45;95090.84;;;1.71;77.73
6425;BME280;12193;42.642;23.384;2024-01-11T09:08:14;95090.44;;;1.94;76.96
6425;BME280;12193;42.642;23.384;2024-01-11T09:10:44;95083.19;;;1.31;78.99
6425;BME280;12193;42.642;23.384;2024-01-11T09:13:13;95079.22;;;1.08;80.92
6425;BME280;12193;42.642;23.384;2024-01-11T09:15:42;95079.63;;;2.19;75.52
6425;BME280;12193;42.642;23.384;2024-01-11T09:18:11;95069.47;;;2.27;74.94
6425;BME280;12193;42.642;23.384;2024-01-11T09:20:42;95072.28;;;2.62;71.83
6425;BME280;12193;42.642;23.384;2024-01-11T09:23:14;95067.47;;;2.40;73.45
6425;BME280;12193;42.642;23.384;2024-01-11T09:25:44;95065.72;;;2.77;71.72
6425;BME280;12193;42.642;23.384;2024-01-11T09:28:13;95060.28;;;3.16;68.77
6425;BME280;12193;42.642;23.384;2024-01-11T09:30:42;95062.97;;;3.24;68.67
6425;BME280;12193;42.642;23.384;2024-01-11T09:33:11;95061.59;;;2.57;70.16
6425;BME280;12193;42.642;23.384;2024-01-11T09:35:41;95049.84;;;2.64;71.54
6425;BME280;12193;42.642;23.384;2024-01-11T09:38:13;95048.63;;;2.95;70.89
6425;BME280;12193;42.642;23.384;2024-01-11T09:40:42;95045.75;;;2.71;68.97
6425;BME280;12193;42.642;23.384;2024-01-11T09:43:12;95040.34;;;3.10;69.35
6425;BME280;12193;42.642;23.384;2024-01-11T09:45:41;95029.91;;;2.85;70.51
6425;BME280;12193;42.642;23.384;2024-01-11T09:48:11;95009.47;;;2.93;69.65
6425;BME280;12193;42.642;23.384;2024-01-11T09:50:40;95017.56;;;3.42;65.19
6425;BME280;12193;42.642;23.384;2024-01-11T09:53:10;95017.75;;;4.35;62.61
6425;BME280;12193;42.642;23.384;2024-01-11T09:55:42;95011.25;;;4.06;60.20
6425;BME280;12193;42.642;23.384;2024-01-11T09:58:11;95002.06;;;3.51;62.75
6425;BME280;12193;42.642;23.384;2024-01-11T10:00:40;94995.00;;;3.88;59.91
6425;BME280;12193;42.642;23.384;2024-01-11T10:03:10;94993.50;;;3.60;61.88
6425;BME280;12193;42.642;23.384;2024-01-11T10:05:40;94994.63;;;4.18;60.09
6425;BME280;12193;42.642;23.384;2024-01-11T10:08:10;94993.34;;;4.47;59.15
6425;BME280;12193;42.642;23.384;2024-01-11T10:10:42;94983.44;;;4.60;56.88
6425;BME280;12193;42.642;23.384;2024-01-11T10:13:12;94989.19;;;4.04;58.07
6425;BME280;12193;42.642;23.384;2024-01-11T10:15:41;94974.47;;;4.64;56.06
6425;BME280;12193;42.642;23.384;2024-01-11T10:18:10;94973.94;;;4.27;59.56
6425;BME280;12193;42.642;23.384;2024-01-11T10:20:39;94962.59;;;4.38;58.41
6425;BME280;12193;42.642;23.384;2024-01-11T10:23:08;94959.81;;;3.63;60.69
6425;BME280;12193;42.642;23.384;2024-01-11T10:25:38;94963.53;;;4.11;59.42
6425;BME280;12193;42.642;23.384;2024-01-11T10:28:13;94954.94;;;4.54;58.90
6425;BME280;12193;42.642;23.384;2024-01-11T10:30:45;94956.22;;;3.99;62.38
6425;BME280;12193;42.642;23.384;2024-01-11T10:33:15;94954.06;;;4.12;59.50
6425;BME280;12193;42.642;23.384;2024-01-11T10:35:46;94941.47;;;5.01;56.12
6425;BME280;12193;42.642;23.384;2024-01-11T10:38:15;94938.44;;;5.13;54.42
6425;BME280;12193;42.642;23.384;2024-01-11T10:40:45;94925.16;;;4.18;56.00
6425;BME280;12193;42.642;23.384;2024-01-11T10:43:21;94924.25;;;2.62;62.26
6425;BME280;12193;42.642;23.384;2024-01-11T10:45:52;94917.72;;;1.21;71.22
6425;BME280;12193;42.642;23.384;2024-01-11T10:48:25;94906.53;;;0.84;75.15
6425;BME280;12193;42.642;23.384;2024-01-11T10:50:58;94911.41;;;0.38;78.44
6425;BME280;12193;42.642;23.384;2024-01-11T10:53:36;94907.03;;;0.59;78.67
6425;BME280;12193;42.642;23.384;2024-01-11T10:56:12;94901.88;;;0.10;83.39
6425;BME280;12193;42.642;23.384;2024-01-11T10:58:45;94901.22;;;0.08;85.93
6425;BME280;12193;42.642;23.384;2024-01-11T11:01:16;94897.97;;;-0.23;89.68
6425;BME280;12193;42.642;23.384;2024-01-11T11:03:47;94894.13;;;-0.38;91.86
6425;BME280;12193;42.642;23.384;2024-01-11T11:06:18;94884.31;;;-0.43;93.13
6425;BME280;12193;42.642;23.384;2024-01-11T11:08:49;94878.25;;;-0.42;95.06
6425;BME280;12193;42.642;23.384;2024-01-11T11:11:20;94870.16;;;-0.17;93.51
6425;BME280;12193;42.642;23.384;2024-01-11T11:13:53;94868.34;;;-0.35;94.29
6425;BME280;12193;42.642;23.384;2024-01-11T11:16:23;94870.91;;;-0.35;95.07
6425;BME280;12193;42.642;23.384;2024-01-11T11:18:53;94852.34;;;-0.37;94.52
6425;BME280;12193;42.642;23.384;2024-01-11T11:21:23;94854.22;;;-0.39;94.83
6425;BME280;12193;42.642;23.384;2024-01-11T11:23:55;94847.00;;;-0.55;96.40
6425;BME280;12193;42.642;23.384;2024-01-11T11:26:26;94841.44;;;-0.39;94.94
6425;BME280;12193;42.642;23.384;2024-01-11T11:28:58;94837.44;;;-0.62;95.71
6425;BME280;12193;42.642;23.384;2024-01-11T11:31:35;94827.97;;;-0.21;94.90
6425;BME280;12193;42.642;23.384;2024-01-11T11:34:04;94826.09;;;-0.09;94.03
6425;BME280;12193;42.642;23.384;2024-01-11T11:36:34;94818.09;;;0.04;92.12
6425;BME280;12193;42.642;23.384;2024-01-11T11:39:03;94813.16;;;0.31;91.70
6425;BME280;12193;42.642;23.384;2024-01-11T11:41:35;94809.25;;;0.08;89.22
6425;BME280;12193;42.642;23.384;2024-01-11T11:44:07;94802.16;;;0.31;95.24
6425;BME280;12193;42.642;23.384;2024-01-11T11:46:41;94793.84;;;0.67;89.80
6425;BME280;12193;42.642;23.384;2024-01-11T11:49:11;94803.88;;;0.21;89.60
6425;BME280;12193;42.642;23.384;2024-01-11T11:51:40;94802.16;;;0.31;90.46
6425;BME280;12193;42.642;23.384;2024-01-11T11:54:09;94801.91;;;0.53;88.54
6425;BME280;12193;42.642;23.384;2024-01-11T11:56:41;94797.47;;;0.45;87.66
6425;BME280;12193;42.642;23.384;2024-01-11T11:59:14;94796.28;;;0.59;87.17
6425;BME280;12193;42.642;23.384;2024-01-11T12:01:43;94786.56;;;0.72;86.44
6425;BME280;12193;42.642;23.384;2024-01-11T12:04:13;94791.53;;;0.45;86.27
6425;BME280;12193;42.642;23.384;2024-01-11T12:06:44;94782.66;;;0.49;87.10
6425;BME280;12193;42.642;23.384;2024-01-11T12:09:18;94767.47;;;0.28;89.51
6425;BME280;12193;42.642;23.384;2024-01-11T12:11:48;94771.22;;;0.53;87.63
6425;BME280;12193;42.642;23.384;2024-01-11T12:14:20;94771.75;;;0.56;87.52
6425;BME280;12193;42.642;23.384;2024-01-11T12:16:56;94763.97;;;0.67;86.60
6425;BME280;12193;42.642;23.384;2024-01-11T12:19:25;94758.81;;;0.96;85.02
6425;BME280;12193;42.642;23.384;2024-01-11T12:21:55;94754.22;;;1.08;84.32
6425;BME280;12193;42.642;23.384;2024-01-11T12:24:24;94751.38;;;1.11;83.29
6425;BME280;12193;42.642;23.384;2024-01-11T12:26:53;94749.47;;;1.59;81.22
6425;BME280;12193;42.642;23.384;2024-01-11T12:29:28;94739.47;;;1.29;81.50
6425;BME280;12193;42.642;23.384;2024-01-11T12:31:58;94739.19;;;1.32;85.22
6425;BME280;12193;42.642;23.384;2024-01-11T12:34:28;94739.94;;;1.52;81.10
6425;BME280;12193;42.642;23.384;2024-01-11T12:36:58;94732.28;;;1.52;79.38
6425;BME280;12193;42.642;23.384;2024-01-11T12:39:31;94733.13;;;1.70;79.56
6425;BME280;12193;42.642;23.384;2024-01-11T12:42:01;94739.00;;;1.80;77.56
6425;BME280;12193;42.642;23.384;2024-01-11T12:44:33;94730.72;;;2.12;78.06
6425;BME280;12193;42.642;23.384;2024-01-11T12:47:04;94723.09;;;2.03;76.80
6425;BME280;12193;42.642;23.384;2024-01-11T12:49:49;94716.72;;;2.07;78.98
6425;BME280;12193;42.642;23.384;2024-01-11T12:52:19;94716.66;;;1.99;76.91
6425;BME280;12193;42.642;23.384;2024-01-11T12:54:52;94713.94;;;2.01;76.80
6425;BME280;12193;42.642;23.384;2024-01-11T12:57:23;94700.44;;;1.81;76.26
6425;BME280;12193;42.642;23.384;2024-01-11T13:00:09;94705.91;;;1.86;78.62
6425;BME280;12193;42.642;23.384;2024-01-11T13:02:39;94699.56;;;1.90;77.80
6425;BME280;12193;42.642;23.384;2024-01-11T13:05:09;94694.59;;;1.89;78.25
6425;BME280;12193;42.642;23.384;2024-01-11T13:07:38;94697.28;;;1.87;78.55
6425;BME280;12193;42.642;23.384;2024-01-11T13:10:08;94694.44;;;1.90;79.74
6425;BME280;12193;42.642;23.384;2024-01-11T13:12:37;94694.50;;;1.81;80.38
6425;BME280;12193;42.642;23.384;2024-01-11T13:15:09;94691.81;;;1.82;80.02
6425;BME280;12193;42.642;23.384;2024-01-11T13:17:39;94694.31;;;2.09;79.10
6425;BME280;12193;42.642;23.384;2024-01-11T13:20:09;94682.72;;;2.05;79.80
6425;BME280;12193;42.642;23.384;2024-01-11T13:22:40;94679.94;;;1.99;79.42
6425;BME280;12193;42.642;23.384;2024-01-11T13:25:09;94677.88;;;1.85;80.73
6425;BME280;12193;42.642;23.384;2024-01-11T13:27:38;94675.34;;;2.02;80.91
6425;BME280;12193;42.642;23.384;2024-01-11T13:30:10;94673.72;;;1.84;79.97
6425;BME280;12193;42.642;23.384;2024-01-11T13:32:39;94662.34;;;1.86;80.63
6425;BME280;12193;42.642;23.384;2024-01-11T13:35:09;94661.47;;;1.60;82.40
6425;BME280;12193;42.642;23.384;2024-01-11T13:37:38;94657.84;;;1.98;81.04
6425;BME280;12193;42.642;23.384;2024-01-11T13:40:08;94649.22;;;2.16;80.29
6425;BME280;12193;42.642;23.384;2024-01-11T13:42:40;94652.22;;;2.11;79.97
6425;BME280;12193;42.642;23.384;2024-01-11T13:45:12;94653.69;;;2.31;79.52
6425;BME280;12193;42.642;23.384;2024-01-11T13:47:41;94649.50;;;2.30;80.76
6425;BME280;12193;42.642;23.384;2024-01-11T13:50:10;94639.81;;;2.42;79.40
6425;BME280;12193;42.642;23.384;2024-01-11T13:52:40;94635.88;;;2.73;77.91
6425;BME280;12193;42.642;23.384;2024-01-11T13:55:10;94634.91;;;2.74;77.32
6425;BME280;12193;42.642;23.384;2024-01-11T13:57:40;94631.06;;;2.95;77.85
6425;BME280;12193;42.642;23.384;2024-01-11T14:00:13;94634.97;;;3.40;74.39
6425;BME280;12193;42.642;23.384;2024-01-11T14:02:44;94638.19;;;3.17;74.50
6425;BME280;12193;42.642;23.384;2024-01-11T14:05:14;94631.53;;;2.99;75.45
6425;BME280;12193;42.642;23.384;2024-01-11T14:07:44;94625.34;;;3.09;75.91
6425;BME280;12193;42.642;23.384;2024-01-11T14:10:14;94615.22;;;3.07;76.13
6425;BME280;12193;42.642;23.384;2024-01-11T14:12:44;94597.44;;;2.81;77.88
6425;BME280;12193;42.642;23.384;2024-01-11T14:15:16;94599.91;;;2.90;78.66
6425;BME280;12193;42.642;23.384;2024-01-11T14:17:46;94597.03;;;3.01;78.02
6425;BME280;12193;42.642;23.384;2024-01-11T14:20:15;94597.28;;;2.57;81.48
6425;BME280;12193;42.642;23.384;2024-01-11T14:22:44;94600.50;;;2.59;81.85
6425;BME280;12193;42.642;23.384;2024-01-11T14:25:15;94597.47;;;2.38;83.62
6425;BME280;12193;42.642;23.384;2024-01-11T14:27:45;94595.47;;;2.49;82.96
6425;BME280;12193;42.642;23.384;2024-01-11T14:30:17;94591.41;;;2.04;85.32
6425;BME280;12193;42.642;23.384;2024-01-11T14:32:48;94587.69;;;1.99;87.36
6425;BME280;12193;42.642;23.384;2024-01-11T14:35:17;94595.00;;;2.11;87.46
6425;BME280;12193;42.642;23.384;2024-01-11T14:37:47;94596.13;;;1.91;88.01
6425;BME280;12193;42.642;23.384;2024-01-11T14:40:18;94594.56;;;1.81;88.56
6425;BME280;12193;42.642;23.384;2024-01-11T14:42:48;94593.25;;;1.77;89.67
6425;BME280;12193;42.642;23.384;2024-01-11T14:45:20;94589.97;;;1.84;89.47
6425;BME280;12193;42.642;23.384;2024-01-11T14:47:49;94587.13;;;1.70;90.96
6425;BME280;12193;42.642;23.384;2024-01-11T14:50:18;94577.81;;;1.69;91.10
6425;BME280;12193;42.642;23.384;2024-01-11T14:52:48;94577.06;;;1.59;92.18
6425;BME280;12193;42.642;23.384;2024-01-11T14:55:17;94578.09;;;1.66;92.86
6425;BME280;12193;42.642;23.384;2024-01-11T14:57:46;94583.06;;;1.67;93.41
6425;BME280;12193;42.642;23.384;2024-01-11T15:00:16;94575.91;;;1.53;93.86
6425;BME280;12193;42.642;23.384;2024-01-11T15:02:48;94582.41;;;1.48;94.03
6425;BME280;12193;42.642;23.384;2024-01-11T15:05:18;94579.50;;;1.60;93.54
6425;BME280;12193;42.642;23.384;2024-01-11T15:07:47;94587.25;;;1.51;94.02
6425;BME280;12193;42.642;23.384;2024-01-11T15:10:16;94580.19;;;1.35;94.67
6425;BME280;12193;42.642;23.384;2024-01-11T15:12:45;94578.13;;;1.21;95.64
6425;BME280;12193;42.642;23.384;2024-01-11T15:15:17;94568.53;;;1.23;96.08
6425;BME280;12193;42.642;23.384;2024-01-11T15:17:49;94568.84;;;1.20;96.70
6425;BME280;12193;42.642;23.384;2024-01-11T15:20:19;94576.25;;;1.14;97.67
6425;BME280;12193;42.642;23.384;2024-01-11T15:22:48;94588.31;;;1.04;98.71
6425;BME280;12193;42.642;23.384;2024-01-11T15:25:17;94577.53;;;1.10;99.42
6425;BME280;12193;42.642;23.384;2024-01-11T15:27:46;94576.13;;;1.15;99.05
6425;BME280;12193;42.642;23.384;2024-01-11T15:30:16;94584.59;;;1.43;97.56
6425;BME280;12193;42.642;23.384;2024-01-11T15:32:45;94581.47;;;1.22;97.80
6425;BME280;12193;42.642;23.384;2024-01-11T15:35:17;94580.63;;;1.04;98.90
6425;BME280;12193;42.642;23.384;2024-01-11T15:37:46;94583.50;;;0.92;100.00
6425;BME280;12193;42.642;23.384;2024-01-11T15:40:16;94580.13;;;1.01;100.00
6425;BME280;12193;42.642;23.384;2024-01-11T15:42:45;94594.97;;;0.88;100.00
6425;BME280;12193;42.642;23.384;2024-01-11T15:45:15;94590.41;;;0.91;100.00
6425;BME280;12193;42.642;23.384;2024-01-11T15:47:44;94595.25;;;0.85;100.00
6425;BME280;12193;42.642;23.384;2024-01-11T15:50:13;94592.44;;;0.78;100.00
6425;BME280;12193;42.642;23.384;2024-01-11T15:52:45;94595.78;;;0.88;100.00
6425;BME280;12193;42.642;23.384;2024-01-11T15:55:15;94594.88;;;0.80;100.00
6425;BME280;12193;42.642;23.384;2024-01-11T15:57:46;94591.63;;;0.87;100.00
6425;BME280;12193;42.642;23.384;2024-01-11T16:00:18;94590.03;;;0.77;100.00
6425;BME280;12193;42.642;23.384;2024-01-11T16:02:48;94594.75;;;0.72;100.00
6425;BME280;12193;42.642;23.384;2024-01-11T16:05:17;94586.97;;;0.64;100.00
6425;BME280;12193;42.642;23.384;2024-01-11T16:07:49;94589.84;;;0.51;100.00
6425;BME280;12193;42.642;23.384;2024-01-11T16:10:18;94590.50;;;0.53;100.00
6425;BME280;12193;42.642;23.384;2024-01-11T16:12:48;94589.72;;;0.53;100.00
6425;BME280;12193;42.642;23.384;2024-01-11T16:15:17;94585.84;;;0.39;100.00
6425;BME280;12193;42.642;23.384;2024-01-11T16:17:46;94588.13;;;0.42;100.00
6425;BME280;12193;42.642;23.384;2024-01-11T16:20:15;94578.16;;;0.39;100.00